sensor_id;sensor_type;location;lat;lon;timestamp;P1;durP1;ratioP1;P2;durP2;ratioP2
74328;SDS011;62745;51.060;13.786;2023-02-28T00:00:00;5.87;;;2.80;;
74328;SDS011;62745;51.060;13.786;2023-02-28T00:02:26;10.73;;;4.13;;
74328;SDS011;62745;51.060;13.786;2023-02-28T00:04:51;7.53;;;4.17;;
74328;SDS011;62745;51.060;13.786;2023-02-28T00:07:26;9.10;;;4.22;;
74328;SDS011;62745;51.060;13.786;2023-02-28T00:09:52;6.32;;;3.63;;
74328;SDS011;62745;51.060;13.786;2023-02-28T00:12:17;7.00;;;3.30;;
74328;SDS011;62745;51.060;13.786;2023-02-28T00:14:42;8.32;;;3.83;;
74328;SDS011;62745;51.060;13.786;2023-02-28T00:17:08;7.13;;;3.87;;
74328;SDS011;62745;51.060;13.786;2023-02-28T00:19:33;9.03;;;4.03;;
74328;SDS011;62745;51.060;13.786;2023-02-28T00:21:58;7.37;;;3.10;;
74328;SDS011;62745;51.060;13.786;2023-02-28T00:24:24;9.00;;;3.80;;
74328;SDS011;62745;51.060;13.786;2023-02-28T00:26:49;8.70;;;3.67;;
74328;SDS011;62745;51.060;13.786;2023-02-28T00:29:14;9.10;;;4.10;;
74328;SDS011;62745;51.060;13.786;2023-02-28T00:31:39;7.50;;;3.00;;
74328;SDS011;62745;51.060;13.786;2023-02-28T00:34:05;7.00;;;3.70;;
74328;SDS011;62745;51.060;13.786;2023-02-28T00:36:30;8.00;;;3.50;;
74328;SDS011;62745;51.060;13.786;2023-02-28T00:38:55;7.53;;;3.70;;
74328;SDS011;62745;51.060;13.786;2023-02-28T00:41:20;6.15;;;3.25;;
74328;SDS011;62745;51.060;13.786;2023-02-28T00:43:46;5.87;;;3.20;;
74328;SDS011;62745;51.060;13.786;2023-02-28T00:46:11;6.47;;;3.03;;
74328;SDS011;62745;51.060;13.786;2023-02-28T00:48:37;8.50;;;3.08;;
74328;SDS011;62745;51.060;13.786;2023-02-28T00:51:02;8.07;;;4.00;;
74328;SDS011;62745;51.060;13.786;2023-02-28T00:53:27;6.75;;;3.55;;
74328;SDS011;62745;51.060;13.786;2023-02-28T00:55:53;7.03;;;3.55;;
74328;SDS011;62745;51.060;13.786;2023-02-28T00:58:18;7.30;;;3.67;;
74328;SDS011;62745;51.060;13.786;2023-02-28T01:00:43;7.47;;;3.67;;
74328;SDS011;62745;51.060;13.786;2023-02-28T01:03:14;11.40;;;3.53;;
74328;SDS011;62745;51.060;13.786;2023-02-28T01:05:40;7.60;;;3.70;;
74328;SDS011;62745;51.060;13.786;2023-02-28T01:08:06;8.45;;;3.38;;
74328;SDS011;62745;51.060;13.786;2023-02-28T01:10:31;6.88;;;3.30;;
74328;SDS011;62745;51.060;13.786;2023-02-28T01:12:57;7.00;;;3.88;;
74328;SDS011;62745;51.060;13.786;2023-02-28T01:15:22;8.63;;;3.70;;
74328;SDS011;62745;51.060;13.786;2023-02-28T01:17:47;5.57;;;3.10;;
74328;SDS011;62745;51.060;13.786;2023-02-28T01:20:13;7.25;;;3.40;;
74328;SDS011;62745;51.060;13.786;2023-02-28T01:22:38;6.18;;;3.45;;
74328;SDS011;62745;51.060;13.786;2023-02-28T01:25:04;8.33;;;3.30;;
74328;SDS011;62745;51.060;13.786;2023-02-28T01:27:29;7.05;;;3.42;;
74328;SDS011;62745;51.060;13.786;2023-02-28T01:29:54;7.43;;;3.80;;
74328;SDS011;62745;51.060;13.786;2023-02-28T01:32:20;6.80;;;3.43;;
74328;SDS011;62745;51.060;13.786;2023-02-28T01:34:45;6.73;;;3.33;;
74328;SDS011;62745;51.060;13.786;2023-02-28T01:37:10;8.50;;;3.77;;
74328;SDS011;62745;51.060;13.786;2023-02-28T01:39:35;7.10;;;3.40;;
74328;SDS011;62745;51.060;13.786;2023-02-28T01:42:01;7.03;;;3.57;;
74328;SDS011;62745;51.060;13.786;2023-02-28T01:47:30;7.50;;;3.35;;
74328;SDS011;62745;51.060;13.786;2023-02-28T01:49:59;7.25;;;3.60;;
74328;SDS011;62745;51.060;13.786;2023-02-28T01:52:27;6.32;;;3.13;;
74328;SDS011;62745;51.060;13.786;2023-02-28T01:54:54;10.23;;;3.50;;
74328;SDS011;62745;51.060;13.786;2023-02-28T01:57:23;7.10;;;3.90;;
74328;SDS011;62745;51.060;13.786;2023-02-28T01:59:57;9.02;;;3.53;;
74328;SDS011;62745;51.060;13.786;2023-02-28T02:04:55;6.28;;;3.20;;
74328;SDS011;62745;51.060;13.786;2023-02-28T02:07:26;8.30;;;3.75;;
74328;SDS011;62745;51.060;13.786;2023-02-28T02:10:12;6.63;;;3.42;;
74328;SDS011;62745;51.060;13.786;2023-02-28T02:18:46;7.30;;;3.28;;
74328;SDS011;62745;51.060;13.786;2023-02-28T02:27:47;7.78;;;4.03;;
74328;SDS011;62745;51.060;13.786;2023-02-28T02:33:10;8.05;;;3.22;;
74328;SDS011;62745;51.060;13.786;2023-02-28T02:35:42;7.05;;;3.60;;
74328;SDS011;62745;51.060;13.786;2023-02-28T02:44:01;8.90;;;3.85;;
74328;SDS011;62745;51.060;13.786;2023-02-28T02:47:05;8.32;;;4.07;;
74328;SDS011;62745;51.060;13.786;2023-02-28T02:49:36;7.95;;;3.30;;
74328;SDS011;62745;51.060;13.786;2023-02-28T02:52:04;7.80;;;3.65;;
74328;SDS011;62745;51.060;13.786;2023-02-28T02:54:40;9.15;;;3.83;;
74328;SDS011;62745;51.060;13.786;2023-02-28T02:57:16;7.40;;;4.13;;
74328;SDS011;62745;51.060;13.786;2023-02-28T02:59:48;9.82;;;4.93;;
74328;SDS011;62745;51.060;13.786;2023-02-28T03:02:15;7.60;;;3.15;;
74328;SDS011;62745;51.060;13.786;2023-02-28T03:04:43;9.68;;;4.60;;
74328;SDS011;62745;51.060;13.786;2023-02-28T03:07:15;10.27;;;4.10;;
74328;SDS011;62745;51.060;13.786;2023-02-28T03:09:40;7.30;;;3.90;;
74328;SDS011;62745;51.060;13.786;2023-02-28T03:12:15;7.47;;;4.82;;
74328;SDS011;62745;51.060;13.786;2023-02-28T03:14:43;7.85;;;4.30;;
74328;SDS011;62745;51.060;13.786;2023-02-28T03:20:09;11.27;;;5.13;;
74328;SDS011;62745;51.060;13.786;2023-02-28T03:25:51;11.55;;;5.00;;
74328;SDS011;62745;51.060;13.786;2023-02-28T03:31:13;9.07;;;4.40;;
74328;SDS011;62745;51.060;13.786;2023-02-28T03:33:50;12.25;;;5.50;;
74328;SDS011;62745;51.060;13.786;2023-02-28T03:36:22;8.40;;;4.43;;
74328;SDS011;62745;51.060;13.786;2023-02-28T03:39:04;8.23;;;4.55;;
74328;SDS011;62745;51.060;13.786;2023-02-28T03:42:17;8.85;;;5.03;;
74328;SDS011;62745;51.060;13.786;2023-02-28T03:44:25;10.63;;;5.30;;
74328;SDS011;62745;51.060;13.786;2023-02-28T03:46:59;10.05;;;4.45;;
74328;SDS011;62745;51.060;13.786;2023-02-28T03:49:44;10.73;;;5.32;;
74328;SDS011;62745;51.060;13.786;2023-02-28T03:52:14;6.97;;;4.30;;
74328;SDS011;62745;51.060;13.786;2023-02-28T03:54:47;10.02;;;5.45;;
74328;SDS011;62745;51.060;13.786;2023-02-28T03:57:37;10.52;;;5.85;;
74328;SDS011;62745;51.060;13.786;2023-02-28T04:02:35;11.60;;;5.50;;
74328;SDS011;62745;51.060;13.786;2023-02-28T04:05:01;9.20;;;5.30;;
74328;SDS011;62745;51.060;13.786;2023-02-28T04:07:28;9.77;;;5.03;;
74328;SDS011;62745;51.060;13.786;2023-02-28T04:09:55;8.57;;;5.63;;
74328;SDS011;62745;51.060;13.786;2023-02-28T04:12:21;9.35;;;5.45;;
74328;SDS011;62745;51.060;13.786;2023-02-28T04:14:48;12.07;;;6.13;;
74328;SDS011;62745;51.060;13.786;2023-02-28T04:17:13;12.85;;;5.97;;
74328;SDS011;62745;51.060;13.786;2023-02-28T04:19:39;8.90;;;5.03;;
74328;SDS011;62745;51.060;13.786;2023-02-28T04:22:04;10.40;;;5.23;;
74328;SDS011;62745;51.060;13.786;2023-02-28T04:24:29;11.50;;;5.77;;
74328;SDS011;62745;51.060;13.786;2023-02-28T04:26:56;11.73;;;5.43;;
74328;SDS011;62745;51.060;13.786;2023-02-28T04:29:29;13.82;;;5.65;;
74328;SDS011;62745;51.060;13.786;2023-02-28T04:31:59;11.40;;;5.53;;
74328;SDS011;62745;51.060;13.786;2023-02-28T04:34:26;9.00;;;4.78;;
74328;SDS011;62745;51.060;13.786;2023-02-28T04:36:53;10.07;;;5.40;;
74328;SDS011;62745;51.060;13.786;2023-02-28T04:39:23;10.07;;;5.43;;
74328;SDS011;62745;51.060;13.786;2023-02-28T04:41:49;11.63;;;6.47;;
74328;SDS011;62745;51.060;13.786;2023-02-28T04:44:15;11.50;;;6.80;;
74328;SDS011;62745;51.060;13.786;2023-02-28T04:46:41;12.30;;;6.25;;
74328;SDS011;62745;51.060;13.786;2023-02-28T04:49:06;11.32;;;6.03;;
74328;SDS011;62745;51.060;13.786;2023-02-28T04:51:33;14.88;;;6.75;;
74328;SDS011;62745;51.060;13.786;2023-02-28T04:53:58;8.87;;;5.20;;
74328;SDS011;62745;51.060;13.786;2023-02-28T04:56:23;12.27;;;6.38;;
74328;SDS011;62745;51.060;13.786;2023-02-28T04:58:49;12.83;;;7.03;;
74328;SDS011;62745;51.060;13.786;2023-02-28T05:01:16;13.00;;;6.07;;
74328;SDS011;62745;51.060;13.786;2023-02-28T05:03:48;13.20;;;6.50;;
74328;SDS011;62745;51.060;13.786;2023-02-28T05:06:14;14.20;;;6.28;;
74328;SDS011;62745;51.060;13.786;2023-02-28T05:08:39;11.93;;;6.25;;
74328;SDS011;62745;51.060;13.786;2023-02-28T05:13:48;10.40;;;5.78;;
74328;SDS011;62745;51.060;13.786;2023-02-28T05:16:14;10.75;;;6.60;;
74328;SDS011;62745;51.060;13.786;2023-02-28T05:18:40;14.00;;;7.03;;
74328;SDS011;62745;51.060;13.786;2023-02-28T05:21:05;12.75;;;6.07;;
74328;SDS011;62745;51.060;13.786;2023-02-28T05:23:31;11.65;;;5.15;;
74328;SDS011;62745;51.060;13.786;2023-02-28T05:25:57;14.70;;;7.70;;
74328;SDS011;62745;51.060;13.786;2023-02-28T05:28:22;10.63;;;6.07;;
74328;SDS011;62745;51.060;13.786;2023-02-28T05:30:48;16.42;;;7.30;;
74328;SDS011;62745;51.060;13.786;2023-02-28T05:33:13;12.20;;;6.77;;
74328;SDS011;62745;51.060;13.786;2023-02-28T05:35:39;10.43;;;6.35;;
74328;SDS011;62745;51.060;13.786;2023-02-28T05:38:05;12.63;;;6.72;;
74328;SDS011;62745;51.060;13.786;2023-02-28T05:40:30;12.40;;;6.60;;
74328;SDS011;62745;51.060;13.786;2023-02-28T05:42:55;10.90;;;6.20;;
74328;SDS011;62745;51.060;13.786;2023-02-28T05:45:21;14.77;;;7.40;;
74328;SDS011;62745;51.060;13.786;2023-02-28T05:47:46;11.13;;;5.90;;
74328;SDS011;62745;51.060;13.786;2023-02-28T05:50:11;12.33;;;7.10;;
74328;SDS011;62745;51.060;13.786;2023-02-28T05:52:37;11.47;;;5.90;;
74328;SDS011;62745;51.060;13.786;2023-02-28T05:55:02;14.40;;;6.97;;
74328;SDS011;62745;51.060;13.786;2023-02-28T05:57:28;11.88;;;6.72;;
74328;SDS011;62745;51.060;13.786;2023-02-28T05:59:53;12.63;;;5.70;;
74328;SDS011;62745;51.060;13.786;2023-02-28T06:02:19;11.83;;;6.27;;
74328;SDS011;62745;51.060;13.786;2023-02-28T06:04:44;10.80;;;6.25;;
74328;SDS011;62745;51.060;13.786;2023-02-28T06:07:10;12.32;;;7.25;;
74328;SDS011;62745;51.060;13.786;2023-02-28T06:09:36;14.07;;;7.47;;
74328;SDS011;62745;51.060;13.786;2023-02-28T06:12:02;15.60;;;7.00;;
74328;SDS011;62745;51.060;13.786;2023-02-28T06:14:30;10.43;;;6.35;;
74328;SDS011;62745;51.060;13.786;2023-02-28T06:16:56;13.50;;;7.10;;
74328;SDS011;62745;51.060;13.786;2023-02-28T06:19:22;14.55;;;6.85;;
74328;SDS011;62745;51.060;13.786;2023-02-28T06:21:50;15.50;;;5.75;;
74328;SDS011;62745;51.060;13.786;2023-02-28T06:24:17;14.82;;;6.88;;
74328;SDS011;62745;51.060;13.786;2023-02-28T06:26:43;12.07;;;6.90;;
74328;SDS011;62745;51.060;13.786;2023-02-28T06:29:08;12.20;;;6.27;;
74328;SDS011;62745;51.060;13.786;2023-02-28T06:31:34;14.33;;;6.83;;
74328;SDS011;62745;51.060;13.786;2023-02-28T06:34:00;16.37;;;6.30;;
74328;SDS011;62745;51.060;13.786;2023-02-28T06:36:25;13.73;;;7.50;;
74328;SDS011;62745;51.060;13.786;2023-02-28T06:38:51;11.40;;;6.23;;
74328;SDS011;62745;51.060;13.786;2023-02-28T06:41:19;14.38;;;6.55;;
74328;SDS011;62745;51.060;13.786;2023-02-28T06:43:46;14.68;;;6.70;;
74328;SDS011;62745;51.060;13.786;2023-02-28T06:46:12;12.07;;;6.93;;
74328;SDS011;62745;51.060;13.786;2023-02-28T06:48:39;14.80;;;7.35;;
74328;SDS011;62745;51.060;13.786;2023-02-28T06:51:07;15.15;;;7.50;;
74328;SDS011;62745;51.060;13.786;2023-02-28T06:53:38;16.63;;;6.85;;
74328;SDS011;62745;51.060;13.786;2023-02-28T06:56:05;13.23;;;6.25;;
74328;SDS011;62745;51.060;13.786;2023-02-28T06:58:32;12.30;;;6.90;;
74328;SDS011;62745;51.060;13.786;2023-02-28T07:00:58;12.05;;;6.05;;
74328;SDS011;62745;51.060;13.786;2023-02-28T07:03:24;15.43;;;7.75;;
74328;SDS011;62745;51.060;13.786;2023-02-28T07:05:49;14.40;;;7.47;;
74328;SDS011;62745;51.060;13.786;2023-02-28T07:08:14;12.00;;;6.63;;
74328;SDS011;62745;51.060;13.786;2023-02-28T07:10:40;14.70;;;7.10;;
74328;SDS011;62745;51.060;13.786;2023-02-28T07:13:06;14.55;;;6.53;;
74328;SDS011;62745;51.060;13.786;2023-02-28T07:15:33;15.27;;;7.55;;
74328;SDS011;62745;51.060;13.786;2023-02-28T07:17:58;14.10;;;7.33;;
74328;SDS011;62745;51.060;13.786;2023-02-28T07:20:24;14.93;;;7.33;;
74328;SDS011;62745;51.060;13.786;2023-02-28T07:22:49;15.18;;;7.45;;
74328;SDS011;62745;51.060;13.786;2023-02-28T07:25:22;13.15;;;7.55;;
74328;SDS011;62745;51.060;13.786;2023-02-28T07:27:48;14.50;;;6.80;;
74328;SDS011;62745;51.060;13.786;2023-02-28T07:30:13;11.60;;;5.60;;
74328;SDS011;62745;51.060;13.786;2023-02-28T07:32:39;12.85;;;7.32;;
74328;SDS011;62745;51.060;13.786;2023-02-28T07:35:04;12.65;;;6.90;;
74328;SDS011;62745;51.060;13.786;2023-02-28T07:37:30;14.68;;;6.90;;
74328;SDS011;62745;51.060;13.786;2023-02-28T07:39:56;15.48;;;7.28;;
74328;SDS011;62745;51.060;13.786;2023-02-28T07:42:21;13.35;;;7.13;;
74328;SDS011;62745;51.060;13.786;2023-02-28T07:44:47;14.33;;;7.13;;
74328;SDS011;62745;51.060;13.786;2023-02-28T07:47:12;14.43;;;6.80;;
74328;SDS011;62745;51.060;13.786;2023-02-28T07:49:37;12.07;;;6.83;;
74328;SDS011;62745;51.060;13.786;2023-02-28T07:52:04;14.18;;;7.13;;
74328;SDS011;62745;51.060;13.786;2023-02-28T07:54:31;12.60;;;6.93;;
74328;SDS011;62745;51.060;13.786;2023-02-28T07:56:57;15.05;;;7.30;;
74328;SDS011;62745;51.060;13.786;2023-02-28T07:59:22;13.52;;;7.60;;
74328;SDS011;62745;51.060;13.786;2023-02-28T08:01:47;13.35;;;7.10;;
74328;SDS011;62745;51.060;13.786;2023-02-28T08:04:15;16.23;;;8.18;;
74328;SDS011;62745;51.060;13.786;2023-02-28T08:06:40;16.20;;;8.32;;
74328;SDS011;62745;51.060;13.786;2023-02-28T08:09:06;15.13;;;7.38;;
74328;SDS011;62745;51.060;13.786;2023-02-28T08:11:31;13.67;;;7.33;;
74328;SDS011;62745;51.060;13.786;2023-02-28T08:13:57;11.67;;;6.87;;
74328;SDS011;62745;51.060;13.786;2023-02-28T08:16:23;13.95;;;6.97;;
74328;SDS011;62745;51.060;13.786;2023-02-28T08:18:51;16.50;;;7.33;;
74328;SDS011;62745;51.060;13.786;2023-02-28T08:21:17;12.07;;;5.85;;
74328;SDS011;62745;51.060;13.786;2023-02-28T08:23:43;15.32;;;7.65;;
74328;SDS011;62745;51.060;13.786;2023-02-28T08:26:11;14.07;;;6.88;;
74328;SDS011;62745;51.060;13.786;2023-02-28T08:28:36;14.53;;;7.13;;
74328;SDS011;62745;51.060;13.786;2023-02-28T08:31:01;13.10;;;6.47;;
74328;SDS011;62745;51.060;13.786;2023-02-28T08:33:32;14.07;;;7.35;;
74328;SDS011;62745;51.060;13.786;2023-02-28T08:35:58;13.07;;;6.90;;
74328;SDS011;62745;51.060;13.786;2023-02-28T08:38:23;14.47;;;7.30;;
74328;SDS011;62745;51.060;13.786;2023-02-28T08:40:49;13.30;;;6.10;;
74328;SDS011;62745;51.060;13.786;2023-02-28T08:43:14;13.88;;;6.00;;
74328;SDS011;62745;51.060;13.786;2023-02-28T08:45:39;13.60;;;6.63;;
74328;SDS011;62745;51.060;13.786;2023-02-28T08:48:05;11.35;;;6.25;;
74328;SDS011;62745;51.060;13.786;2023-02-28T08:50:30;15.77;;;6.00;;
74328;SDS011;62745;51.060;13.786;2023-02-28T08:52:55;12.23;;;5.87;;
74328;SDS011;62745;51.060;13.786;2023-02-28T08:55:21;13.47;;;6.27;;
74328;SDS011;62745;51.060;13.786;2023-02-28T08:57:46;15.80;;;6.47;;
74328;SDS011;62745;51.060;13.786;2023-02-28T09:00:12;12.47;;;6.07;;
74328;SDS011;62745;51.060;13.786;2023-02-28T09:02:39;11.43;;;5.95;;
74328;SDS011;62745;51.060;13.786;2023-02-28T09:05:04;13.90;;;6.47;;
74328;SDS011;62745;51.060;13.786;2023-02-28T09:07:30;12.30;;;6.10;;
74328;SDS011;62745;51.060;13.786;2023-02-28T09:09:55;11.53;;;5.17;;
74328;SDS011;62745;51.060;13.786;2023-02-28T09:12:22;13.82;;;5.85;;
74328;SDS011;62745;51.060;13.786;2023-02-28T09:14:51;14.05;;;4.97;;
74328;SDS011;62745;51.060;13.786;2023-02-28T09:17:17;14.43;;;5.90;;
74328;SDS011;62745;51.060;13.786;2023-02-28T09:19:43;11.60;;;6.32;;
74328;SDS011;62745;51.060;13.786;2023-02-28T09:22:08;12.02;;;5.97;;
74328;SDS011;62745;51.060;13.786;2023-02-28T09:24:35;13.45;;;5.70;;
74328;SDS011;62745;51.060;13.786;2023-02-28T09:27:02;12.02;;;6.20;;
74328;SDS011;62745;51.060;13.786;2023-02-28T09:29:27;12.00;;;6.28;;
74328;SDS011;62745;51.060;13.786;2023-02-28T09:31:52;17.30;;;6.17;;
74328;SDS011;62745;51.060;13.786;2023-02-28T09:34:18;13.63;;;5.70;;
74328;SDS011;62745;51.060;13.786;2023-02-28T09:36:43;12.03;;;5.30;;
74328;SDS011;62745;51.060;13.786;2023-02-28T09:39:09;10.65;;;5.20;;
74328;SDS011;62745;51.060;13.786;2023-02-28T09:41:38;9.95;;;5.05;;
74328;SDS011;62745;51.060;13.786;2023-02-28T09:44:13;10.80;;;5.35;;
74328;SDS011;62745;51.060;13.786;2023-02-28T09:46:46;8.38;;;4.45;;
74328;SDS011;62745;51.060;13.786;2023-02-28T09:49:18;14.95;;;5.28;;
74328;SDS011;62745;51.060;13.786;2023-02-28T09:51:51;9.50;;;5.68;;
74328;SDS011;62745;51.060;13.786;2023-02-28T09:54:24;10.02;;;5.10;;
74328;SDS011;62745;51.060;13.786;2023-02-28T09:59:31;9.00;;;4.97;;
74328;SDS011;62745;51.060;13.786;2023-02-28T10:05:14;7.30;;;4.43;;
74328;SDS011;62745;51.060;13.786;2023-02-28T10:08:25;10.57;;;5.05;;
74328;SDS011;62745;51.060;13.786;2023-02-28T10:10:43;10.95;;;5.30;;
74328;SDS011;62745;51.060;13.786;2023-02-28T10:15:51;9.40;;;4.95;;
74328;SDS011;62745;51.060;13.786;2023-02-28T10:18:27;8.85;;;4.88;;
74328;SDS011;62745;51.060;13.786;2023-02-28T10:20:59;8.82;;;4.75;;
74328;SDS011;62745;51.060;13.786;2023-02-28T10:23:27;12.68;;;5.63;;
74328;SDS011;62745;51.060;13.786;2023-02-28T10:25:59;9.23;;;5.07;;
74328;SDS011;62745;51.060;13.786;2023-02-28T10:28:26;13.05;;;5.50;;
74328;SDS011;62745;51.060;13.786;2023-02-28T10:30:54;9.60;;;5.25;;
74328;SDS011;62745;51.060;13.786;2023-02-28T10:33:22;9.70;;;5.35;;
74328;SDS011;62745;51.060;13.786;2023-02-28T10:35:50;12.32;;;5.95;;
74328;SDS011;62745;51.060;13.786;2023-02-28T10:38:21;10.52;;;5.90;;
74328;SDS011;62745;51.060;13.786;2023-02-28T10:40:49;10.23;;;5.70;;
74328;SDS011;62745;51.060;13.786;2023-02-28T10:45:52;11.25;;;5.38;;
74328;SDS011;62745;51.060;13.786;2023-02-28T10:50:52;12.18;;;6.47;;
74328;SDS011;62745;51.060;13.786;2023-02-28T10:55:56;11.90;;;5.90;;
74328;SDS011;62745;51.060;13.786;2023-02-28T10:58:22;11.10;;;5.75;;
74328;SDS011;62745;51.060;13.786;2023-02-28T11:00:49;10.20;;;6.15;;
74328;SDS011;62745;51.060;13.786;2023-02-28T11:06:19;10.35;;;6.25;;
74328;SDS011;62745;51.060;13.786;2023-02-28T11:08:54;9.55;;;6.10;;
74328;SDS011;62745;51.060;13.786;2023-02-28T11:11:24;10.68;;;5.82;;
74328;SDS011;62745;51.060;13.786;2023-02-28T11:13:54;13.00;;;6.43;;
74328;SDS011;62745;51.060;13.786;2023-02-28T11:16:22;10.88;;;5.53;;
74328;SDS011;62745;51.060;13.786;2023-02-28T11:18:58;10.63;;;6.03;;
74328;SDS011;62745;51.060;13.786;2023-02-28T11:21:26;12.23;;;6.07;;
74328;SDS011;62745;51.060;13.786;2023-02-28T11:23:56;9.82;;;5.85;;
74328;SDS011;62745;51.060;13.786;2023-02-28T11:26:37;10.00;;;5.45;;
74328;SDS011;62745;51.060;13.786;2023-02-28T11:29:14;10.63;;;5.38;;
74328;SDS011;62745;51.060;13.786;2023-02-28T11:31:44;10.80;;;5.57;;
74328;SDS011;62745;51.060;13.786;2023-02-28T11:34:26;11.82;;;4.93;;
74328;SDS011;62745;51.060;13.786;2023-02-28T11:36:53;11.18;;;5.45;;
74328;SDS011;62745;51.060;13.786;2023-02-28T11:39:22;10.40;;;5.60;;
74328;SDS011;62745;51.060;13.786;2023-02-28T11:44:52;11.75;;;5.95;;
74328;SDS011;62745;51.060;13.786;2023-02-28T11:50:22;9.10;;;5.43;;
74328;SDS011;62745;51.060;13.786;2023-02-28T12:01:38;11.63;;;5.65;;
74328;SDS011;62745;51.060;13.786;2023-02-28T12:04:45;12.10;;;6.18;;
74328;SDS011;62745;51.060;13.786;2023-02-28T12:07:21;11.18;;;5.72;;
74328;SDS011;62745;51.060;13.786;2023-02-28T12:12:33;13.55;;;6.25;;
74328;SDS011;62745;51.060;13.786;2023-02-28T12:28:53;10.70;;;6.57;;
74328;SDS011;62745;51.060;13.786;2023-02-28T12:31:24;10.20;;;6.30;;
74328;SDS011;62745;51.060;13.786;2023-02-28T12:34:03;15.52;;;7.25;;
74328;SDS011;62745;51.060;13.786;2023-02-28T12:36:34;10.88;;;6.07;;
74328;SDS011;62745;51.060;13.786;2023-02-28T12:39:07;12.85;;;7.32;;
74328;SDS011;62745;51.060;13.786;2023-02-28T12:44:30;13.50;;;6.63;;
74328;SDS011;62745;51.060;13.786;2023-02-28T12:47:04;11.48;;;6.55;;
74328;SDS011;62745;51.060;13.786;2023-02-28T12:49:37;10.68;;;5.40;;
74328;SDS011;62745;51.060;13.786;2023-02-28T12:52:07;11.60;;;6.75;;
74328;SDS011;62745;51.060;13.786;2023-02-28T12:57:19;13.15;;;7.10;;
74328;SDS011;62745;51.060;13.786;2023-02-28T12:59:55;12.65;;;7.22;;
74328;SDS011;62745;51.060;13.786;2023-02-28T13:02:42;14.68;;;6.93;;
74328;SDS011;62745;51.060;13.786;2023-02-28T13:08:04;11.45;;;6.50;;
74328;SDS011;62745;51.060;13.786;2023-02-28T13:10:55;13.45;;;6.78;;
74328;SDS011;62745;51.060;13.786;2023-02-28T13:13:22;15.48;;;6.55;;
74328;SDS011;62745;51.060;13.786;2023-02-28T13:15:58;11.75;;;6.85;;
74328;SDS011;62745;51.060;13.786;2023-02-28T13:18:35;13.57;;;7.53;;
74328;SDS011;62745;51.060;13.786;2023-02-28T13:21:08;12.45;;;6.97;;
74328;SDS011;62745;51.060;13.786;2023-02-28T13:26:22;13.07;;;7.35;;
74328;SDS011;62745;51.060;13.786;2023-02-28T13:31:13;14.03;;;7.20;;
74328;SDS011;62745;51.060;13.786;2023-02-28T13:38:39;15.30;;;7.75;;
74328;SDS011;62745;51.060;13.786;2023-02-28T13:46:29;12.93;;;6.75;;
74328;SDS011;62745;51.060;13.786;2023-02-28T13:48:55;13.15;;;7.85;;
74328;SDS011;62745;51.060;13.786;2023-02-28T13:51:40;12.00;;;7.15;;
74328;SDS011;62745;51.060;13.786;2023-02-28T13:57:17;12.38;;;7.22;;
74328;SDS011;62745;51.060;13.786;2023-02-28T14:05:33;11.45;;;6.70;;
74328;SDS011;62745;51.060;13.786;2023-02-28T14:08:03;13.07;;;6.90;;
74328;SDS011;62745;51.060;13.786;2023-02-28T14:10:41;12.02;;;7.93;;
74328;SDS011;62745;51.060;13.786;2023-02-28T14:15:59;15.27;;;8.55;;
74328;SDS011;62745;51.060;13.786;2023-02-28T14:18:30;14.05;;;7.60;;
74328;SDS011;62745;51.060;13.786;2023-02-28T14:21:08;14.45;;;8.20;;
74328;SDS011;62745;51.060;13.786;2023-02-28T14:23:55;13.05;;;7.32;;
74328;SDS011;62745;51.060;13.786;2023-02-28T14:26:32;13.65;;;7.70;;
74328;SDS011;62745;51.060;13.786;2023-02-28T14:34:54;14.25;;;8.50;;
74328;SDS011;62745;51.060;13.786;2023-02-28T14:37:26;11.57;;;7.20;;
74328;SDS011;62745;51.060;13.786;2023-02-28T14:39:55;17.23;;;7.97;;
74328;SDS011;62745;51.060;13.786;2023-02-28T14:42:29;15.20;;;8.55;;
74328;SDS011;62745;51.060;13.786;2023-02-28T14:44:59;12.32;;;7.32;;
74328;SDS011;62745;51.060;13.786;2023-02-28T14:47:28;10.95;;;6.38;;
74328;SDS011;62745;51.060;13.786;2023-02-28T14:49:57;14.10;;;7.90;;
74328;SDS011;62745;51.060;13.786;2023-02-28T14:52:24;14.13;;;7.47;;
74328;SDS011;62745;51.060;13.786;2023-02-28T14:54:59;14.93;;;8.80;;
74328;SDS011;62745;51.060;13.786;2023-02-28T14:57:30;11.77;;;7.45;;
74328;SDS011;62745;51.060;13.786;2023-02-28T14:59:58;14.13;;;8.23;;
74328;SDS011;62745;51.060;13.786;2023-02-28T15:02:24;14.38;;;7.82;;
74328;SDS011;62745;51.060;13.786;2023-02-28T15:04:54;12.15;;;7.28;;
74328;SDS011;62745;51.060;13.786;2023-02-28T15:07:23;13.85;;;7.30;;
74328;SDS011;62745;51.060;13.786;2023-02-28T15:10:13;14.48;;;8.07;;
74328;SDS011;62745;51.060;13.786;2023-02-28T15:12:53;11.65;;;6.90;;
74328;SDS011;62745;51.060;13.786;2023-02-28T15:15:21;12.95;;;7.78;;
74328;SDS011;62745;51.060;13.786;2023-02-28T15:17:51;15.57;;;7.45;;
74328;SDS011;62745;51.060;13.786;2023-02-28T15:20:21;15.20;;;6.93;;
74328;SDS011;62745;51.060;13.786;2023-02-28T15:22:48;15.27;;;7.38;;
74328;SDS011;62745;51.060;13.786;2023-02-28T15:25:18;12.40;;;8.02;;
74328;SDS011;62745;51.060;13.786;2023-02-28T15:27:47;12.50;;;6.68;;
74328;SDS011;62745;51.060;13.786;2023-02-28T15:30:16;12.68;;;8.30;;
74328;SDS011;62745;51.060;13.786;2023-02-28T15:32:46;12.82;;;7.57;;
74328;SDS011;62745;51.060;13.786;2023-02-28T15:35:46;13.95;;;7.30;;
74328;SDS011;62745;51.060;13.786;2023-02-28T15:38:26;14.38;;;7.55;;
74328;SDS011;62745;51.060;13.786;2023-02-28T15:40:53;13.73;;;7.85;;
74328;SDS011;62745;51.060;13.786;2023-02-28T15:45:55;12.55;;;7.55;;
74328;SDS011;62745;51.060;13.786;2023-02-28T15:50:55;14.90;;;7.95;;
74328;SDS011;62745;51.060;13.786;2023-02-28T15:53:28;14.90;;;8.55;;
74328;SDS011;62745;51.060;13.786;2023-02-28T15:56:21;15.00;;;7.88;;
74328;SDS011;62745;51.060;13.786;2023-02-28T15:58:50;12.48;;;7.63;;
74328;SDS011;62745;51.060;13.786;2023-02-28T16:01:26;13.05;;;7.78;;
74328;SDS011;62745;51.060;13.786;2023-02-28T16:03:55;15.07;;;7.10;;
74328;SDS011;62745;51.060;13.786;2023-02-28T16:08:55;14.18;;;7.90;;
74328;SDS011;62745;51.060;13.786;2023-02-28T16:11:21;14.48;;;7.68;;
74328;SDS011;62745;51.060;13.786;2023-02-28T16:13:47;10.70;;;7.25;;
74328;SDS011;62745;51.060;13.786;2023-02-28T16:16:19;12.93;;;7.68;;
74328;SDS011;62745;51.060;13.786;2023-02-28T16:18:48;12.93;;;6.82;;
74328;SDS011;62745;51.060;13.786;2023-02-28T16:21:13;10.55;;;6.72;;
74328;SDS011;62745;51.060;13.786;2023-02-28T16:23:39;13.95;;;7.47;;
74328;SDS011;62745;51.060;13.786;2023-02-28T16:26:04;13.40;;;7.45;;
74328;SDS011;62745;51.060;13.786;2023-02-28T16:28:32;13.88;;;7.55;;
74328;SDS011;62745;51.060;13.786;2023-02-28T16:31:00;14.80;;;7.35;;
74328;SDS011;62745;51.060;13.786;2023-02-28T16:33:27;14.43;;;7.88;;
74328;SDS011;62745;51.060;13.786;2023-02-28T16:35:53;13.23;;;7.82;;
74328;SDS011;62745;51.060;13.786;2023-02-28T16:38:18;12.60;;;6.97;;
74328;SDS011;62745;51.060;13.786;2023-02-28T16:40:44;14.50;;;8.27;;
74328;SDS011;62745;51.060;13.786;2023-02-28T16:43:13;14.82;;;7.05;;
74328;SDS011;62745;51.060;13.786;2023-02-28T16:45:42;14.48;;;7.93;;
74328;SDS011;62745;51.060;13.786;2023-02-28T16:48:08;14.00;;;6.75;;
74328;SDS011;62745;51.060;13.786;2023-02-28T16:50:38;14.43;;;7.50;;
74328;SDS011;62745;51.060;13.786;2023-02-28T16:53:03;17.23;;;7.90;;
74328;SDS011;62745;51.060;13.786;2023-02-28T16:55:29;11.93;;;6.83;;